createdAt,value
2018-07-16T00:00:26.595Z,17.90
2018-07-16T00:02:55.222Z,18.00
2018-07-16T00:05:23.855Z,18.00
2018-07-16T00:07:52.417Z,18.00
2018-07-16T00:10:20.994Z,17.90
2018-07-16T00:12:49.958Z,17.80
2018-07-16T00:15:19.222Z,17.80
2018-07-16T00:17:47.817Z,17.90
2018-07-16T00:20:16.421Z,17.90
2018-07-16T00:22:44.979Z,17.90
2018-07-16T00:25:13.559Z,18.00
2018-07-16T00:27:42.146Z,17.80
2018-07-16T00:30:10.742Z,17.80
2018-07-16T00:32:39.337Z,17.80
2018-07-16T00:35:07.943Z,17.70
2018-07-16T00:37:36.541Z,17.60
2018-07-16T00:40:05.182Z,17.70
2018-07-16T00:42:33.803Z,17.70
2018-07-16T00:45:02.412Z,17.70
2018-07-16T00:47:30.997Z,17.80
2018-07-16T00:49:59.857Z,17.80
2018-07-16T00:52:28.423Z,17.80
2018-07-16T00:54:56.982Z,17.80
2018-07-16T00:57:25.649Z,17.70
2018-07-16T00:59:54.213Z,17.60
2018-07-16T01:02:22.803Z,17.60
2018-07-16T01:04:51.403Z,17.60
2018-07-16T01:07:19.963Z,17.60
2018-07-16T01:09:48.522Z,17.70
2018-07-16T01:12:17.152Z,17.70
2018-07-16T01:14:45.710Z,17.60
2018-07-16T01:17:15.105Z,17.70
2018-07-16T01:19:43.734Z,17.60
2018-07-16T01:22:12.266Z,17.60
2018-07-16T01:24:40.835Z,17.60
2018-07-16T01:27:09.430Z,17.70
2018-07-16T01:29:38.014Z,17.70
2018-07-16T01:32:06.734Z,17.70
2018-07-16T01:34:35.370Z,17.70
2018-07-16T01:37:03.934Z,17.70
2018-07-16T01:39:32.494Z,17.70
2018-07-16T01:42:01.075Z,17.70
2018-07-16T01:44:29.613Z,17.70
2018-07-16T01:49:26.456Z,17.60
2018-07-16T01:51:55.037Z,17.40
2018-07-16T01:54:23.630Z,17.30
2018-07-16T01:56:52.233Z,17.50
2018-07-16T01:59:20.858Z,17.60
2018-07-16T02:01:49.417Z,17.50
2018-07-16T02:04:18.051Z,17.50
2018-07-16T02:06:46.611Z,17.40
2018-07-16T02:09:15.132Z,17.30
2018-07-16T02:11:43.731Z,17.40
2018-07-16T02:14:12.298Z,17.40
2018-07-16T02:16:40.899Z,17.50
2018-07-16T02:19:09.479Z,17.60
2018-07-16T02:21:38.240Z,17.40
2018-07-16T02:24:06.886Z,17.50
2018-07-16T02:26:36.193Z,17.50
2018-07-16T02:29:04.753Z,17.50
2018-07-16T02:31:33.315Z,17.50
2018-07-16T02:34:01.975Z,17.30
2018-07-16T02:36:30.581Z,17.20
2018-07-16T02:38:59.164Z,17.20
2018-07-16T02:41:27.781Z,17.20
2018-07-16T02:43:56.719Z,17.10
2018-07-16T02:46:25.306Z,17.20
2018-07-16T02:48:53.936Z,17.20
2018-07-16T02:51:22.503Z,17.20
2018-07-16T02:53:51.058Z,17.30
2018-07-16T02:56:19.650Z,17.40
2018-07-16T02:58:48.219Z,17.40
2018-07-16T03:01:16.794Z,17.30
2018-07-16T03:03:45.382Z,17.20
2018-07-16T03:06:13.977Z,17.00
2018-07-16T03:08:42.542Z,17.00
2018-07-16T03:11:11.180Z,16.90
2018-07-16T03:13:39.844Z,16.90
2018-07-16T03:16:08.450Z,17.00
2018-07-16T03:18:37.010Z,17.00
2018-07-16T03:21:05.660Z,17.20
2018-07-16T03:23:34.247Z,17.20
2018-07-16T03:26:02.808Z,17.20
2018-07-16T03:28:31.409Z,17.10
2018-07-16T03:31:01.113Z,17.00
2018-07-16T03:33:29.735Z,16.90
2018-07-16T03:35:58.303Z,17.00
2018-07-16T03:38:26.974Z,17.10
2018-07-16T03:40:55.565Z,17.20
2018-07-16T03:43:24.117Z,17.20
2018-07-16T03:45:52.694Z,17.10
2018-07-16T03:48:21.355Z,17.00
2018-07-16T03:50:50.007Z,17.00
2018-07-16T03:53:18.645Z,17.00
2018-07-16T03:55:47.272Z,17.00
2018-07-16T03:58:15.813Z,16.90
2018-07-16T04:00:44.380Z,16.90
2018-07-16T04:03:12.975Z,16.80
2018-07-16T04:08:09.789Z,16.70
2018-07-16T04:10:38.405Z,16.70
2018-07-16T04:13:06.975Z,16.50
2018-07-16T04:15:35.574Z,16.60
2018-07-16T04:18:08.578Z,16.80
2018-07-16T04:20:37.310Z,16.90
2018-07-16T04:23:05.870Z,16.90
2018-07-16T04:25:34.467Z,17.10
2018-07-16T04:28:03.080Z,17.20
2018-07-16T04:30:31.682Z,17.30
2018-07-16T04:33:00.293Z,17.40
2018-07-16T04:35:29.655Z,17.50
2018-07-16T04:37:58.251Z,17.60
2018-07-16T04:42:55.388Z,17.60
2018-07-16T04:45:23.996Z,17.70
2018-07-16T04:47:52.573Z,17.70
2018-07-16T04:50:21.172Z,17.70
2018-07-16T04:52:49.888Z,17.60
2018-07-16T04:55:18.554Z,17.70
2018-07-16T04:57:47.118Z,17.70
2018-07-16T05:00:15.754Z,17.80
2018-07-16T05:02:44.315Z,17.70
2018-07-16T05:05:12.893Z,17.70
2018-07-16T05:07:41.961Z,17.50
2018-07-16T05:10:10.558Z,17.60
2018-07-16T05:15:07.402Z,17.70
2018-07-16T05:17:36.018Z,17.90
2018-07-16T05:20:04.606Z,18.10
2018-07-16T05:22:33.177Z,18.30
2018-07-16T05:25:01.749Z,18.60
2018-07-16T05:27:30.322Z,18.80
2018-07-16T05:29:58.891Z,19.20
2018-07-16T05:32:27.481Z,20.20
2018-07-16T05:34:56.375Z,20.40
2018-07-16T05:37:25.011Z,21.70
2018-07-16T05:39:53.584Z,22.70
2018-07-16T05:42:22.151Z,23.40
2018-07-16T05:44:50.717Z,22.70
2018-07-16T05:47:19.354Z,21.90
2018-07-16T05:49:47.901Z,21.60
2018-07-16T05:52:16.520Z,21.10
2018-07-16T05:54:45.183Z,20.60
2018-07-16T05:57:13.758Z,20.70
2018-07-16T05:59:42.327Z,20.80
2018-07-16T06:02:11.543Z,20.80
2018-07-16T06:04:40.071Z,20.50
2018-07-16T06:07:08.605Z,20.50
2018-07-16T06:09:37.160Z,20.20
2018-07-16T06:12:06.646Z,20.10
2018-07-16T06:14:35.329Z,20.00
2018-07-16T06:17:03.791Z,20.10
2018-07-16T06:19:32.320Z,20.10
2018-07-16T06:22:00.925Z,20.00
2018-07-16T06:24:29.574Z,19.90
2018-07-16T06:26:58.213Z,19.90
2018-07-16T06:29:27.015Z,19.90
2018-07-16T06:31:55.545Z,19.90
2018-07-16T06:34:24.101Z,20.00
2018-07-16T06:36:52.653Z,20.00
2018-07-16T06:39:21.293Z,20.10
2018-07-16T06:41:49.907Z,20.20
2018-07-16T06:44:18.612Z,20.30
2018-07-16T06:46:47.263Z,20.30
2018-07-16T06:49:15.794Z,20.30
2018-07-16T06:51:44.329Z,20.30
2018-07-16T06:54:13.030Z,20.10
2018-07-16T06:56:41.670Z,20.10
2018-07-16T06:59:10.218Z,20.30
2018-07-16T07:01:38.828Z,20.50
2018-07-16T07:04:07.596Z,21.00
2018-07-16T07:06:36.167Z,20.90
2018-07-16T07:09:05.223Z,20.60
2018-07-16T07:11:33.795Z,20.60
2018-07-16T07:14:02.491Z,20.40
2018-07-16T07:16:30.990Z,20.20
2018-07-16T07:18:59.915Z,20.30
2018-07-16T07:21:28.552Z,20.20
2018-07-16T07:23:57.243Z,20.30
2018-07-16T07:26:25.842Z,20.20
2018-07-16T07:31:22.762Z,20.30
2018-07-16T07:33:51.398Z,20.40
2018-07-16T07:36:20.012Z,20.40
2018-07-16T07:38:48.576Z,20.40
2018-07-16T07:41:17.144Z,20.40
2018-07-16T07:43:45.754Z,20.50
2018-07-16T07:46:14.342Z,20.50
2018-07-16T07:48:42.941Z,20.70
2018-07-16T07:51:11.510Z,20.70
2018-07-16T07:53:40.081Z,20.70
2018-07-16T07:56:08.686Z,20.80
2018-07-16T07:58:37.211Z,20.90
2018-07-16T08:01:05.850Z,20.90
2018-07-16T08:03:34.423Z,20.90
2018-07-16T08:06:06.299Z,21.20
2018-07-16T08:08:36.935Z,21.40
2018-07-16T08:11:06.024Z,21.40
2018-07-16T08:13:34.686Z,21.80
2018-07-16T08:16:03.323Z,22.10
2018-07-16T08:18:31.931Z,21.90
2018-07-16T08:21:00.599Z,22.10
2018-07-16T08:23:29.098Z,22.60
2018-07-16T08:25:57.742Z,23.60
2018-07-16T08:28:26.359Z,25.20
2018-07-16T08:30:54.926Z,27.70
2018-07-16T08:33:23.535Z,27.80
2018-07-16T08:35:52.263Z,27.10
2018-07-16T08:38:20.860Z,28.60
2018-07-16T08:40:49.459Z,30.30
2018-07-16T08:43:18.075Z,31.10
2018-07-16T08:45:46.691Z,29.40
2018-07-16T08:48:15.251Z,28.10
2018-07-16T08:50:43.780Z,25.40
2018-07-16T08:53:12.374Z,25.90
2018-07-16T08:55:40.898Z,26.10
2018-07-16T08:58:09.487Z,26.40
2018-07-16T09:00:38.103Z,27.10
2018-07-16T09:03:06.707Z,27.40
2018-07-16T09:05:35.267Z,27.80
2018-07-16T09:08:03.852Z,27.30
2018-07-16T09:10:32.411Z,27.40
2018-07-16T09:13:00.979Z,26.50
2018-07-16T09:15:29.554Z,26.60
2018-07-16T09:17:58.121Z,26.00
2018-07-16T09:20:26.737Z,25.90
2018-07-16T09:22:55.375Z,25.30
2018-07-16T09:25:24.063Z,25.20
2018-07-16T09:27:52.582Z,25.30
2018-07-16T09:30:21.153Z,25.00
2018-07-16T09:32:49.875Z,25.70
2018-07-16T09:35:18.414Z,25.40
2018-07-16T09:37:47.020Z,25.60
2018-07-16T09:40:15.659Z,25.80
2018-07-16T09:42:44.262Z,25.50
2018-07-16T09:45:12.811Z,26.10
2018-07-16T09:47:41.370Z,25.50
2018-07-16T09:50:10.011Z,26.80
2018-07-16T09:52:38.579Z,26.60
2018-07-16T09:55:07.447Z,27.10
2018-07-16T09:57:36.068Z,26.80
2018-07-16T10:00:05.090Z,27.10
2018-07-16T10:02:33.703Z,27.10
2018-07-16T10:05:02.305Z,28.00
2018-07-16T10:07:30.902Z,27.70
2018-07-16T10:09:59.449Z,27.60
2018-07-16T10:12:28.050Z,27.40
2018-07-16T10:14:56.584Z,27.30
2018-07-16T10:17:25.194Z,27.70
2018-07-16T10:19:54.364Z,27.60
2018-07-16T10:22:22.974Z,27.80
2018-07-16T10:24:51.565Z,28.00
2018-07-16T10:27:20.413Z,27.90
2018-07-16T10:29:49.050Z,27.90
2018-07-16T10:32:17.612Z,27.80
2018-07-16T10:34:46.222Z,27.70
2018-07-16T10:37:14.838Z,28.30
2018-07-16T10:39:43.473Z,27.70
2018-07-16T10:42:12.072Z,27.30
2018-07-16T10:44:40.618Z,28.20
2018-07-16T10:47:09.228Z,29.10
2018-07-16T10:49:37.887Z,28.90
2018-07-16T10:52:06.973Z,28.60
2018-07-16T10:57:03.919Z,28.20
2018-07-16T10:59:32.517Z,28.50
2018-07-16T11:02:01.301Z,29.30
2018-07-16T11:04:29.825Z,28.40
2018-07-16T11:06:58.455Z,29.10
2018-07-16T11:09:27.056Z,28.40
2018-07-16T11:11:55.647Z,28.40
2018-07-16T11:14:24.337Z,27.70
2018-07-16T11:16:52.870Z,28.10
2018-07-16T11:19:21.495Z,28.00
2018-07-16T11:21:50.064Z,27.90
2018-07-16T11:24:18.738Z,27.90
2018-07-16T11:26:47.326Z,27.50
2018-07-16T11:29:15.978Z,27.60
2018-07-16T11:31:44.584Z,27.60
2018-07-16T11:34:13.155Z,27.60
2018-07-16T11:36:41.713Z,27.70
2018-07-16T11:39:10.331Z,28.00
2018-07-16T11:41:39.685Z,28.00
2018-07-16T11:44:08.901Z,27.50
2018-07-16T11:46:37.500Z,27.30
2018-07-16T11:49:06.119Z,27.60
2018-07-16T11:51:34.700Z,27.90
2018-07-16T11:54:03.313Z,27.80
2018-07-16T11:56:31.878Z,28.40
2018-07-16T11:59:00.545Z,29.00
2018-07-16T12:01:29.078Z,29.00
2018-07-16T12:03:57.787Z,28.70
2018-07-16T12:06:26.359Z,29.20
2018-07-16T12:08:56.015Z,28.80
2018-07-16T12:11:24.605Z,27.60
2018-07-16T12:13:53.248Z,28.30
2018-07-16T12:16:21.862Z,28.70
2018-07-16T12:18:50.442Z,29.30
2018-07-16T12:21:19.066Z,27.90
2018-07-16T12:26:15.993Z,27.70
2018-07-16T12:28:44.564Z,28.40
2018-07-16T12:31:13.138Z,28.40
2018-07-16T12:33:41.771Z,28.60
2018-07-16T12:36:10.333Z,28.10
2018-07-16T12:38:38.865Z,28.50
2018-07-16T12:41:07.473Z,28.20
2018-07-16T12:43:36.132Z,27.80
2018-07-16T12:46:04.758Z,28.20
2018-07-16T12:48:33.338Z,28.00
2018-07-16T12:51:01.953Z,28.10
2018-07-16T12:53:30.479Z,28.40
2018-07-16T12:55:59.082Z,28.80
2018-07-16T12:58:27.662Z,28.30
2018-07-16T13:00:56.186Z,28.10
2018-07-16T13:03:25.441Z,28.30
2018-07-16T13:05:53.977Z,28.40
2018-07-16T13:08:22.544Z,28.70
2018-07-16T13:10:51.090Z,28.30
2018-07-16T13:13:19.779Z,28.80
2018-07-16T13:15:48.415Z,29.10
2018-07-16T13:18:17.059Z,29.20
2018-07-16T13:20:45.637Z,28.10
2018-07-16T13:23:14.194Z,27.80
2018-07-16T13:25:42.754Z,28.20
2018-07-16T13:28:11.337Z,28.60
2018-07-16T13:30:39.920Z,28.60
2018-07-16T13:33:08.654Z,28.90
2018-07-16T13:35:37.252Z,28.10
2018-07-16T13:38:06.101Z,28.50
2018-07-16T13:40:34.663Z,28.20
2018-07-16T13:43:03.234Z,28.30
2018-07-16T13:48:00.056Z,28.30
2018-07-16T13:50:28.651Z,28.40
2018-07-16T13:52:57.555Z,28.20
2018-07-16T13:55:26.127Z,28.60
2018-07-16T13:57:54.722Z,28.80
2018-07-16T14:00:23.317Z,28.70
2018-07-16T14:02:51.870Z,28.80
2018-07-16T14:05:20.470Z,28.90
2018-07-16T14:07:49.038Z,29.20
2018-07-16T14:10:17.620Z,29.00
2018-07-16T14:12:46.410Z,29.10
2018-07-16T14:15:15.666Z,29.10
2018-07-16T14:17:44.238Z,28.80
2018-07-16T14:20:12.930Z,28.80
2018-07-16T14:25:09.827Z,28.70
2018-07-16T14:27:38.478Z,28.50
2018-07-16T14:30:07.108Z,28.60
2018-07-16T14:32:36.074Z,28.60
2018-07-16T14:35:05.186Z,28.80
2018-07-16T14:37:33.936Z,28.00
2018-07-16T14:40:03.275Z,28.50
2018-07-16T14:42:32.518Z,28.40
2018-07-16T14:45:01.228Z,28.50
2018-07-16T14:47:29.821Z,28.80
2018-07-16T14:49:58.354Z,28.90
2018-07-16T14:52:27.811Z,29.00
2018-07-16T14:54:56.375Z,28.70
2018-07-16T14:57:26.086Z,28.60
2018-07-16T15:00:00.995Z,28.80
2018-07-16T15:02:31.575Z,28.80
2018-07-16T15:05:00.187Z,28.70
2018-07-16T15:07:28.758Z,28.60
2018-07-16T15:09:57.452Z,28.70
2018-07-16T15:12:26.218Z,28.60
2018-07-16T15:14:54.884Z,28.60
2018-07-16T15:17:23.481Z,28.90
2018-07-16T15:19:52.149Z,28.90
2018-07-16T15:22:20.989Z,28.90
2018-07-16T15:24:49.616Z,28.80
2018-07-16T15:27:18.193Z,28.30
2018-07-16T15:29:46.874Z,28.70
2018-07-16T15:32:16.083Z,28.20
2018-07-16T15:37:19.551Z,28.40
2018-07-16T15:39:48.122Z,28.50
2018-07-16T15:42:16.741Z,28.80
2018-07-16T15:44:45.354Z,28.50
2018-07-16T15:47:13.906Z,28.70
2018-07-16T15:49:42.571Z,28.80
2018-07-16T15:52:11.202Z,28.70
2018-07-16T15:54:39.770Z,28.50
2018-07-16T15:57:08.384Z,28.20
2018-07-16T15:59:37.020Z,28.10
2018-07-16T16:02:05.638Z,27.60
2018-07-16T16:07:02.638Z,27.90
2018-07-16T16:09:31.261Z,28.30
2018-07-16T16:11:59.914Z,28.50
2018-07-16T16:14:28.535Z,28.40
2018-07-16T16:16:57.135Z,28.70
2018-07-16T16:19:25.733Z,28.70
2018-07-16T16:21:54.336Z,28.50
2018-07-16T16:24:22.945Z,28.50
2018-07-16T16:26:51.574Z,28.00
2018-07-16T16:29:20.181Z,28.20
2018-07-16T16:31:48.799Z,28.10
2018-07-16T16:34:17.360Z,28.20
2018-07-16T16:36:45.975Z,27.90
2018-07-16T16:39:14.586Z,27.90
2018-07-16T16:41:43.177Z,28.30
2018-07-16T16:44:11.827Z,28.40
2018-07-16T16:46:40.451Z,28.70
2018-07-16T16:49:09.009Z,28.80
2018-07-16T16:51:37.617Z,29.00
2018-07-16T16:54:06.320Z,28.80
2018-07-16T16:56:34.916Z,28.40
2018-07-16T16:59:03.616Z,27.80
2018-07-16T17:01:32.166Z,27.80
2018-07-16T17:04:00.734Z,27.60
2018-07-16T17:06:29.275Z,27.40
2018-07-16T17:08:57.837Z,27.10
2018-07-16T17:11:26.419Z,26.70
2018-07-16T17:13:55.047Z,26.80
2018-07-16T17:16:23.640Z,26.40
2018-07-16T17:18:52.821Z,26.40
2018-07-16T17:21:21.459Z,26.40
2018-07-16T17:23:50.430Z,26.10
2018-07-16T17:26:19.038Z,25.90
2018-07-16T17:28:47.606Z,26.00
2018-07-16T17:31:17.316Z,25.90
2018-07-16T17:33:46.165Z,25.90
2018-07-16T17:36:14.763Z,25.80
2018-07-16T17:38:43.324Z,25.90
2018-07-16T17:41:11.941Z,25.80
2018-07-16T17:43:40.513Z,25.70
2018-07-16T17:46:09.096Z,25.60
2018-07-16T17:48:39.622Z,25.50
2018-07-16T17:51:08.173Z,25.50
2018-07-16T17:53:36.823Z,25.30
2018-07-16T17:58:33.714Z,25.10
2018-07-16T18:01:25.538Z,25.00
2018-07-16T18:03:53.947Z,25.00
2018-07-16T18:06:22.520Z,25.00
2018-07-16T18:08:51.072Z,24.90
2018-07-16T18:11:19.702Z,24.90
2018-07-16T18:13:48.298Z,24.90
2018-07-16T18:16:16.878Z,24.90
2018-07-16T18:18:45.492Z,24.80
2018-07-16T18:21:14.117Z,24.70
2018-07-16T18:23:42.683Z,24.60
2018-07-16T18:26:11.285Z,24.60
2018-07-16T18:28:39.963Z,24.50
2018-07-16T18:31:08.472Z,24.40
2018-07-16T18:33:37.107Z,24.40
2018-07-16T18:36:05.778Z,24.30
2018-07-16T18:38:34.462Z,24.20
2018-07-16T18:41:03.010Z,24.10
2018-07-16T18:43:31.599Z,24.00
2018-07-16T18:46:00.176Z,24.00
2018-07-16T18:48:28.716Z,23.90
2018-07-16T18:50:57.287Z,23.70
2018-07-16T18:53:25.874Z,23.50
2018-07-16T18:55:54.392Z,23.30
2018-07-16T18:58:22.955Z,23.20
2018-07-16T19:00:51.512Z,23.10
2018-07-16T19:03:20.153Z,23.00
2018-07-16T19:05:48.743Z,23.00
2018-07-16T19:08:17.340Z,22.90
2018-07-16T19:10:46.074Z,22.80
2018-07-16T19:13:14.707Z,22.70
2018-07-16T19:15:43.268Z,22.60
2018-07-16T19:18:11.882Z,22.50
2018-07-16T19:20:41.075Z,22.30
2018-07-16T19:23:09.730Z,22.20
2018-07-16T19:25:38.335Z,22.10
2018-07-16T19:28:07.222Z,22.00
2018-07-16T19:30:36.022Z,21.90
2018-07-16T19:33:05.692Z,21.80
2018-07-16T19:35:34.380Z,21.70
2018-07-16T19:38:02.947Z,21.70
2018-07-16T19:40:31.578Z,21.50
2018-07-16T19:43:00.204Z,21.20
2018-07-16T19:47:57.002Z,20.80
2018-07-16T19:50:25.604Z,20.90
2018-07-16T19:52:54.224Z,20.80
2018-07-16T19:57:51.093Z,20.70
2018-07-16T20:00:19.685Z,20.70
2018-07-16T20:02:48.432Z,20.60
2018-07-16T20:05:17.705Z,20.60
2018-07-16T20:07:47.126Z,20.40
2018-07-16T20:10:15.747Z,20.30
2018-07-16T20:12:44.307Z,20.10
2018-07-16T20:15:18.860Z,20.00
2018-07-16T20:17:47.431Z,19.80
2018-07-16T20:20:16.068Z,19.80
2018-07-16T20:22:45.099Z,19.80
2018-07-16T20:25:14.102Z,19.80
2018-07-16T20:27:42.703Z,19.80
2018-07-16T20:30:11.296Z,19.80
2018-07-16T20:32:39.874Z,19.80
2018-07-16T20:35:08.442Z,19.60
2018-07-16T20:37:37.062Z,19.40
2018-07-16T20:40:05.718Z,19.30
2018-07-16T20:45:02.498Z,19.20
2018-07-16T20:47:31.074Z,19.10
2018-07-16T20:49:59.703Z,19.00
2018-07-16T20:52:28.279Z,18.90
2018-07-16T20:54:59.986Z,18.90
2018-07-16T20:59:56.848Z,18.90
2018-07-16T21:02:25.447Z,19.00
2018-07-16T21:04:54.059Z,18.90
2018-07-16T21:07:22.647Z,18.90
2018-07-16T21:09:51.265Z,18.90
2018-07-16T21:12:19.830Z,18.90
2018-07-16T21:14:48.433Z,18.90
2018-07-16T21:17:17.058Z,18.80
2018-07-16T21:19:45.582Z,18.60
2018-07-16T21:22:14.202Z,18.40
2018-07-16T21:24:42.731Z,18.30
2018-07-16T21:27:11.343Z,18.20
2018-07-16T21:29:39.903Z,18.10
2018-07-16T21:32:08.524Z,18.00
2018-07-16T21:34:37.105Z,18.10
2018-07-16T21:39:34.626Z,17.90
2018-07-16T21:42:03.187Z,17.90
2018-07-16T21:44:31.786Z,17.90
2018-07-16T21:47:00.336Z,17.90
2018-07-16T21:49:28.957Z,18.00
2018-07-16T21:51:57.767Z,18.10
2018-07-16T21:54:26.395Z,18.10
2018-07-16T21:56:54.935Z,18.10
2018-07-16T21:59:23.497Z,18.10
2018-07-16T22:01:52.066Z,18.00
2018-07-16T22:04:20.657Z,17.90
2018-07-16T22:06:49.246Z,17.90
2018-07-16T22:09:17.774Z,17.70
2018-07-16T22:11:46.369Z,17.60
2018-07-16T22:14:14.973Z,17.50
2018-07-16T22:16:43.532Z,17.40
2018-07-16T22:19:12.157Z,17.40
2018-07-16T22:21:40.763Z,17.30
2018-07-16T22:24:09.418Z,17.40
2018-07-16T22:26:38.023Z,17.40
2018-07-16T22:29:06.774Z,17.50
2018-07-16T22:31:35.349Z,17.40
2018-07-16T22:34:04.060Z,17.50
2018-07-16T22:36:32.676Z,17.50
2018-07-16T22:39:01.238Z,17.50
2018-07-16T22:41:29.884Z,17.40
2018-07-16T22:43:58.571Z,17.40
2018-07-16T22:46:27.218Z,17.30
2018-07-16T22:48:55.778Z,17.20
2018-07-16T22:51:24.339Z,17.20
2018-07-16T22:53:52.954Z,17.20
2018-07-16T22:56:21.513Z,17.20
2018-07-16T22:58:50.087Z,17.10
2018-07-16T23:01:18.607Z,17.00
2018-07-16T23:03:47.482Z,16.80
2018-07-16T23:06:16.043Z,16.70
2018-07-16T23:11:12.830Z,16.80
2018-07-16T23:13:41.423Z,16.80
2018-07-16T23:16:09.986Z,16.90
2018-07-16T23:18:38.554Z,16.90
2018-07-16T23:21:07.147Z,16.70
2018-07-16T23:23:36.041Z,16.70
2018-07-16T23:26:04.604Z,16.70
2018-07-16T23:28:33.266Z,16.70
2018-07-16T23:31:01.805Z,16.80
2018-07-16T23:33:30.465Z,16.80
2018-07-16T23:35:59.035Z,16.80
2018-07-16T23:40:55.851Z,16.80
2018-07-16T23:43:24.608Z,16.70
2018-07-16T23:45:53.152Z,16.80
2018-07-16T23:48:21.749Z,16.80
2018-07-16T23:50:50.313Z,16.60
2018-07-16T23:53:18.890Z,16.40
2018-07-16T23:55:47.440Z,16.30
2018-07-16T23:58:16.068Z,16.20
